Galston, United Kingdom
Current Conditions -  °F | °C
As of 10:20 PM on Tuesday 21 Oct 2014 (Local Time) from EGPK Reporting Station
Rain Showers Rain Showers  
Wind Chill: 41°   Ceiling: Unl
Heat Index: 48°   Visibility: 6mi
Dew Point: 41°   Wind: 22mph
Humidity: 76%   Direction: 300°WNW
Pressure: 29.97"   Gusts: NA
Location:  55.6°N, 4.38°W
Report Text: EGPK 212120Z 30019KT 9000 -SHRA FEW036 09/05 Q1015
Loading
Personal Weather Stations






























Interactive Weather Map
Tropical Storm Tracking
New forecast layout! Learn more

10-Day Weather Forecast

Advertisements
Track Severe Weather on mobile